Terminal Aerodrome Forecast
Issued by NWS Columbia, SC

Home | Current Version | Previous Version | Text Only | Print | Product List | Glossary On
Versions: 1 2 3 4 5 6 7 8 9 10 11 12 13 14 15 16 17 18 19 20 21 22 23 24 25 26 27
000
FTUS42 KCAE 222339
TAFCAE
TAF
KCAE 222339Z 2300/2324 10008KT P6SM SCT030 BKN040 OVC050
      TEMPO 2300/2303 4SM -RA BR SCT007 BKN025 OVC035
     FM230900 09004KT P6SM VCSH SCT007 OVC015
     FM231200 13008KT 5SM -SHRA BR SCT007 OVC015
     FM231500 15010G17KT 5SM -SHRA BR SCT007 OVC015=

USA.gov is the U.S. government's official web portal to all federal, state and local government web resources and services.